createdAt,value
2022-08-18T00:00:02.772Z,29.2
2022-08-18T00:06:36.872Z,29.2
2022-08-18T00:11:58.315Z,29.1
2022-08-18T00:17:28.174Z,29.1
2022-08-18T00:23:27.240Z,29.1
2022-08-18T00:29:07.540Z,29.1
2022-08-18T00:34:50.042Z,29.1
2022-08-18T00:40:40.848Z,29.1
2022-08-18T00:46:26.301Z,29.1
2022-08-18T00:52:31.814Z,29.1
2022-08-18T00:58:22.850Z,29
2022-08-18T01:04:00.674Z,29
2022-08-18T01:09:40.798Z,29
2022-08-18T01:16:02.568Z,28.9
2022-08-18T01:21:42.862Z,28.9
2022-08-18T01:27:21.283Z,28.9
2022-08-18T01:33:00.745Z,28.9
2022-08-18T01:38:47.858Z,28.9
2022-08-18T01:46:33.812Z,28.9
2022-08-18T01:52:29.936Z,28.9
2022-08-18T01:57:51.859Z,28.9
2022-08-18T02:04:31.474Z,28.8
2022-08-18T02:10:35.184Z,28.8
2022-08-18T02:16:15.786Z,28.8
2022-08-18T02:22:11.123Z,28.8
2022-08-18T02:27:35.429Z,28.8
2022-08-18T02:33:18.587Z,28.8
2022-08-18T02:38:59.653Z,28.8
2022-08-18T02:44:26.709Z,28.8
2022-08-18T02:50:02.255Z,28.7
2022-08-18T02:55:39.304Z,28.7
2022-08-18T03:01:28.923Z,28.7
2022-08-18T03:07:09.941Z,28.7
2022-08-18T03:13:17.723Z,28.7
2022-08-18T03:19:06.374Z,28.6
2022-08-18T03:25:44.682Z,28.6
2022-08-18T03:31:33.372Z,28.6
2022-08-18T03:36:57.161Z,28.6
2022-08-18T03:43:02.798Z,28.6
2022-08-18T03:49:15.805Z,28.6
2022-08-18T03:54:53.301Z,28.6
2022-08-18T04:00:30.741Z,28.5
2022-08-18T04:06:15.385Z,28.6
2022-08-18T04:12:15.574Z,28.5
2022-08-18T04:18:20.496Z,28.5
2022-08-18T04:24:16.990Z,28.5
2022-08-18T04:29:59.346Z,28.5
2022-08-18T04:35:30.658Z,28.4
2022-08-18T04:41:13.830Z,28.5
2022-08-18T04:46:57.114Z,28.4
2022-08-18T04:53:58.685Z,28.4
2022-08-18T04:59:34.115Z,28.4
2022-08-18T05:05:12.447Z,28.5
2022-08-18T05:10:50.151Z,28.5
2022-08-18T05:17:05.377Z,28.4
2022-08-18T05:23:03.481Z,28.4
2022-08-18T05:28:51.205Z,28.4
2022-08-18T05:35:17.171Z,28.5
2022-08-18T05:41:00.947Z,28.4
2022-08-18T05:46:38.632Z,28.5
2022-08-18T05:52:21.226Z,28.5
2022-08-18T05:58:06.453Z,28.5
2022-08-18T06:03:46.707Z,28.5
2022-08-18T06:09:29.217Z,28.5
2022-08-18T06:15:07.440Z,28.5
2022-08-18T06:20:51.359Z,28.5
2022-08-18T06:26:36.292Z,32.9
2022-08-18T06:32:18.464Z,36
2022-08-18T06:38:08.300Z,34.9
2022-08-18T06:44:22.023Z,33.9
2022-08-18T06:50:11.019Z,37.6
2022-08-18T06:56:25.731Z,38
2022-08-18T07:02:07.230Z,38.4
2022-08-18T07:07:56.047Z,38.9
2022-08-18T07:13:22.947Z,39.3
2022-08-18T07:20:03.232Z,39.8
2022-08-18T07:26:01.462Z,40.3
2022-08-18T07:31:49.756Z,40.6
2022-08-18T07:37:28.741Z,41
2022-08-18T07:43:59.822Z,41.4
2022-08-18T07:50:57.820Z,41.8
2022-08-18T07:57:59.258Z,42.4
2022-08-18T08:04:25.168Z,42.8
2022-08-18T08:10:41.109Z,43.3
2022-08-18T08:17:05.852Z,43.8
2022-08-18T08:23:31.662Z,44.1
2022-08-18T08:29:28.720Z,44.5
2022-08-18T08:36:06.146Z,44.8
2022-08-18T08:42:30.119Z,45.1
2022-08-18T08:48:36.949Z,45.4
2022-08-18T08:54:18.894Z,45.7
2022-08-18T08:59:58.200Z,46
2022-08-18T09:06:17.933Z,46.2
2022-08-18T09:11:54.118Z,46.5
2022-08-18T09:17:37.233Z,46.8
2022-08-18T09:23:18.108Z,46.9
2022-08-18T09:29:16.855Z,47.2
2022-08-18T13:09:35.855Z,53.1
2022-08-18T13:16:39.287Z,53
2022-08-18T13:23:25.574Z,52.9
2022-08-18T13:30:16.896Z,52.9
2022-08-18T13:37:26.684Z,52.3
2022-08-18T13:43:59.901Z,52
2022-08-18T13:56:36.664Z,51.9
2022-08-18T14:03:31.209Z,51.8
2022-08-18T14:10:13.207Z,51.6
2022-08-18T14:16:18.744Z,51.4
2022-08-18T14:22:14.777Z,51.3
2022-08-18T14:28:29.273Z,50.9
2022-08-18T14:35:21.786Z,50.6
2022-08-18T14:42:13.327Z,50.3
2022-08-18T14:49:47.913Z,50
2022-08-18T14:55:57.119Z,49.8
2022-08-18T15:02:03.319Z,49.4
2022-08-18T15:08:48.649Z,49.1
2022-08-18T15:15:12.185Z,48.6
2022-08-18T15:22:48.962Z,48.3
2022-08-18T15:29:07.677Z,47.9
2022-08-18T15:36:18.255Z,47.5
2022-08-18T15:42:54.104Z,47.1
2022-08-18T15:49:14.975Z,46.7
2022-08-18T15:55:52.348Z,46.3
2022-08-18T16:03:05.173Z,45.9
2022-08-18T16:09:20.289Z,45.5
2022-08-18T16:15:19.290Z,45.1
2022-08-18T16:21:23.630Z,44.8
2022-08-18T16:27:07.758Z,44.4
2022-08-18T16:32:49.526Z,44.1
2022-08-18T16:38:31.098Z,43.8
2022-08-18T16:44:16.121Z,43.4
2022-08-18T16:49:58.394Z,43.1
2022-08-18T16:55:51.686Z,42.8
2022-08-18T17:02:22.506Z,42.1
2022-08-18T17:08:10.136Z,40.5
2022-08-18T17:14:03.239Z,39.2
2022-08-18T17:19:43.511Z,38.2
2022-08-18T17:25:47.344Z,37.4
2022-08-18T17:31:58.118Z,36.7
2022-08-18T17:37:42.513Z,36.3
2022-08-18T17:43:24.594Z,35.8
2022-08-18T17:49:18.422Z,35.4
2022-08-18T17:55:23.357Z,35.1
2022-08-18T18:01:46.976Z,34.8
2022-08-18T18:07:38.890Z,34.6
2022-08-18T18:13:48.486Z,34.3
2022-08-18T18:19:32.743Z,34.1
2022-08-18T18:25:50.834Z,33.9
2022-08-18T18:31:34.443Z,33.8
2022-08-18T18:37:00.771Z,33.6
2022-08-18T18:42:45.758Z,33.5
2022-08-18T18:49:08.324Z,33.4
2022-08-18T18:54:57.335Z,33.3
2022-08-18T19:00:41.758Z,33.2
2022-08-18T19:06:48.460Z,33.1
2022-08-18T19:12:36.012Z,33
2022-08-18T19:18:57.630Z,32.9
2022-08-18T19:26:57.877Z,32.8
2022-08-18T19:33:14.528Z,32.7
2022-08-18T19:40:00.537Z,32.6
2022-08-18T19:46:05.629Z,32.6
2022-08-18T19:51:32.260Z,32.5
2022-08-18T19:57:35.905Z,32.4
2022-08-18T20:03:52.240Z,32.4
2022-08-18T20:09:49.191Z,32.3
2022-08-18T20:15:39.512Z,32.3
2022-08-18T20:21:29.739Z,32.2
2022-08-18T20:27:11.334Z,32.2
2022-08-18T20:32:55.500Z,32.1
2022-08-18T20:38:32.835Z,32.1
2022-08-18T20:44:29.860Z,32.1
2022-08-18T20:50:18.305Z,32
2022-08-18T20:57:06.321Z,32
2022-08-18T21:02:39.032Z,31.9
2022-08-18T21:08:42.233Z,31.9
2022-08-18T21:14:38.407Z,31.9
2022-08-18T21:20:10.506Z,31.8
2022-08-18T21:25:57.098Z,31.8
2022-08-18T21:32:15.865Z,31.8
2022-08-18T21:37:41.244Z,31.8
2022-08-18T21:43:21.339Z,31.7
2022-08-18T21:48:49.077Z,31.6
2022-08-18T21:54:28.494Z,31.6
2022-08-18T22:00:12.735Z,31.6
2022-08-18T22:06:15.874Z,31.6
2022-08-18T22:12:34.021Z,31.6
2022-08-18T22:18:21.263Z,31.5
2022-08-18T22:23:44.107Z,31.5
2022-08-18T22:29:22.116Z,31.4
2022-08-18T22:35:06.223Z,31.4
2022-08-18T22:40:47.437Z,31.4
2022-08-18T22:46:09.955Z,31.4
2022-08-18T22:51:56.022Z,31.4
2022-08-18T22:58:00.432Z,31.3
2022-08-18T23:04:03.718Z,31.3
2022-08-18T23:09:29.690Z,31.3
2022-08-18T23:15:00.488Z,31.3
2022-08-18T23:20:37.279Z,31.3
2022-08-18T23:26:43.190Z,31.2
2022-08-18T23:32:29.591Z,31.2
2022-08-18T23:38:09.262Z,31.2
2022-08-18T23:43:56.401Z,31.2
2022-08-18T23:49:36.838Z,31.1
2022-08-18T23:55:18.072Z,31.1
